sensor_id;sensor_type;location;lat;lon;timestamp;P1;durP1;ratioP1;P2;durP2;ratioP2
6205;SDS011;3136;48.788;9.772;2023-01-04T00:00:59;23.10;;;12.43;;
6205;SDS011;3136;48.788;9.772;2023-01-04T00:03:26;19.70;;;11.93;;
6205;SDS011;3136;48.788;9.772;2023-01-04T00:05:51;22.13;;;11.70;;
6205;SDS011;3136;48.788;9.772;2023-01-04T00:08:17;24.30;;;11.67;;
6205;SDS011;3136;48.788;9.772;2023-01-04T00:10:43;22.60;;;11.63;;
6205;SDS011;3136;48.788;9.772;2023-01-04T00:13:08;22.97;;;11.63;;
6205;SDS011;3136;48.788;9.772;2023-01-04T00:15:34;25.07;;;12.13;;
6205;SDS011;3136;48.788;9.772;2023-01-04T00:18:00;18.90;;;11.47;;
6205;SDS011;3136;48.788;9.772;2023-01-04T00:20:25;18.03;;;11.10;;
6205;SDS011;3136;48.788;9.772;2023-01-04T00:22:51;18.57;;;11.60;;
6205;SDS011;3136;48.788;9.772;2023-01-04T00:25:16;18.53;;;11.43;;
6205;SDS011;3136;48.788;9.772;2023-01-04T00:27:42;21.27;;;11.90;;
6205;SDS011;3136;48.788;9.772;2023-01-04T00:30:08;19.07;;;11.70;;
6205;SDS011;3136;48.788;9.772;2023-01-04T00:32:33;19.27;;;11.27;;
6205;SDS011;3136;48.788;9.772;2023-01-04T00:34:59;20.60;;;11.83;;
6205;SDS011;3136;48.788;9.772;2023-01-04T00:37:24;20.90;;;12.00;;
6205;SDS011;3136;48.788;9.772;2023-01-04T00:39:50;18.47;;;10.50;;
6205;SDS011;3136;48.788;9.772;2023-01-04T00:42:16;22.57;;;11.80;;
6205;SDS011;3136;48.788;9.772;2023-01-04T00:44:41;22.27;;;11.90;;
6205;SDS011;3136;48.788;9.772;2023-01-04T00:47:07;19.13;;;11.40;;
6205;SDS011;3136;48.788;9.772;2023-01-04T00:49:33;20.37;;;11.40;;
6205;SDS011;3136;48.788;9.772;2023-01-04T00:51:58;18.37;;;11.77;;
6205;SDS011;3136;48.788;9.772;2023-01-04T00:54:24;20.07;;;11.47;;
6205;SDS011;3136;48.788;9.772;2023-01-04T00:56:50;20.23;;;11.50;;
6205;SDS011;3136;48.788;9.772;2023-01-04T00:59:16;19.23;;;10.70;;
6205;SDS011;3136;48.788;9.772;2023-01-04T01:01:43;17.57;;;11.87;;
6205;SDS011;3136;48.788;9.772;2023-01-04T01:04:13;16.57;;;11.37;;
6205;SDS011;3136;48.788;9.772;2023-01-04T01:06:40;17.20;;;10.97;;
6205;SDS011;3136;48.788;9.772;2023-01-04T01:09:06;19.20;;;11.13;;
6205;SDS011;3136;48.788;9.772;2023-01-04T01:11:33;19.50;;;11.67;;
6205;SDS011;3136;48.788;9.772;2023-01-04T01:14:00;17.50;;;11.27;;
6205;SDS011;3136;48.788;9.772;2023-01-04T01:16:26;17.33;;;10.63;;
6205;SDS011;3136;48.788;9.772;2023-01-04T01:18:52;18.23;;;10.07;;
6205;SDS011;3136;48.788;9.772;2023-01-04T01:21:22;16.13;;;10.27;;
6205;SDS011;3136;48.788;9.772;2023-01-04T01:23:49;19.43;;;11.23;;
6205;SDS011;3136;48.788;9.772;2023-01-04T01:26:16;21.27;;;11.40;;
6205;SDS011;3136;48.788;9.772;2023-01-04T01:28:42;18.77;;;11.27;;
6205;SDS011;3136;48.788;9.772;2023-01-04T01:31:10;19.80;;;11.50;;
6205;SDS011;3136;48.788;9.772;2023-01-04T01:33:38;21.13;;;11.63;;
6205;SDS011;3136;48.788;9.772;2023-01-04T01:36:06;17.57;;;11.57;;
6205;SDS011;3136;48.788;9.772;2023-01-04T01:38:32;19.70;;;10.43;;
6205;SDS011;3136;48.788;9.772;2023-01-04T01:40:58;20.07;;;10.93;;
6205;SDS011;3136;48.788;9.772;2023-01-04T01:46:15;18.90;;;10.43;;
6205;SDS011;3136;48.788;9.772;2023-01-04T01:49:04;16.77;;;10.67;;
6205;SDS011;3136;48.788;9.772;2023-01-04T01:51:37;18.53;;;10.63;;
6205;SDS011;3136;48.788;9.772;2023-01-04T01:54:09;19.67;;;11.70;;
6205;SDS011;3136;48.788;9.772;2023-01-04T01:56:38;18.43;;;11.30;;
6205;SDS011;3136;48.788;9.772;2023-01-04T01:59:08;19.83;;;11.00;;
6205;SDS011;3136;48.788;9.772;2023-01-04T02:01:36;18.00;;;11.37;;
6205;SDS011;3136;48.788;9.772;2023-01-04T02:04:02;18.07;;;11.17;;
6205;SDS011;3136;48.788;9.772;2023-01-04T02:06:30;19.73;;;11.70;;
6205;SDS011;3136;48.788;9.772;2023-01-04T02:08:58;22.93;;;11.83;;
6205;SDS011;3136;48.788;9.772;2023-01-04T02:11:25;17.83;;;11.50;;
6205;SDS011;3136;48.788;9.772;2023-01-04T02:13:51;17.40;;;10.97;;
6205;SDS011;3136;48.788;9.772;2023-01-04T02:35:24;19.33;;;10.93;;
6205;SDS011;3136;48.788;9.772;2023-01-04T02:38:04;20.73;;;11.87;;
6205;SDS011;3136;48.788;9.772;2023-01-04T02:43:26;21.43;;;10.80;;
6205;SDS011;3136;48.788;9.772;2023-01-04T02:46:43;18.63;;;11.80;;
6205;SDS011;3136;48.788;9.772;2023-01-04T02:49:13;18.47;;;11.80;;
6205;SDS011;3136;48.788;9.772;2023-01-04T02:51:57;21.87;;;11.23;;
6205;SDS011;3136;48.788;9.772;2023-01-04T02:54:24;17.17;;;10.13;;
6205;SDS011;3136;48.788;9.772;2023-01-04T02:59:33;18.50;;;11.10;;
6205;SDS011;3136;48.788;9.772;2023-01-04T03:02:23;17.73;;;11.30;;
6205;SDS011;3136;48.788;9.772;2023-01-04T03:05:23;18.00;;;11.50;;
6205;SDS011;3136;48.788;9.772;2023-01-04T03:08:31;16.93;;;10.93;;
6205;SDS011;3136;48.788;9.772;2023-01-04T03:11:04;17.23;;;10.97;;
6205;SDS011;3136;48.788;9.772;2023-01-04T03:13:52;16.63;;;10.73;;
6205;SDS011;3136;48.788;9.772;2023-01-04T03:16:38;18.77;;;10.97;;
6205;SDS011;3136;48.788;9.772;2023-01-04T03:19:07;20.10;;;11.13;;
6205;SDS011;3136;48.788;9.772;2023-01-04T03:21:34;20.90;;;11.60;;
6205;SDS011;3136;48.788;9.772;2023-01-04T03:24:03;22.20;;;11.83;;
6205;SDS011;3136;48.788;9.772;2023-01-04T03:26:54;17.73;;;11.63;;
6205;SDS011;3136;48.788;9.772;2023-01-04T03:29:48;21.50;;;11.57;;
6205;SDS011;3136;48.788;9.772;2023-01-04T03:32:52;23.63;;;11.60;;
6205;SDS011;3136;48.788;9.772;2023-01-04T03:35:50;22.40;;;11.87;;
6205;SDS011;3136;48.788;9.772;2023-01-04T03:38:38;18.27;;;10.67;;
6205;SDS011;3136;48.788;9.772;2023-01-04T03:41:35;18.00;;;11.47;;
6205;SDS011;3136;48.788;9.772;2023-01-04T03:44:33;18.47;;;11.63;;
6205;SDS011;3136;48.788;9.772;2023-01-04T03:47:30;18.10;;;11.43;;
6205;SDS011;3136;48.788;9.772;2023-01-04T03:50:21;17.43;;;11.10;;
6205;SDS011;3136;48.788;9.772;2023-01-04T03:52:52;22.53;;;11.43;;
6205;SDS011;3136;48.788;9.772;2023-01-04T03:55:20;20.17;;;11.73;;
6205;SDS011;3136;48.788;9.772;2023-01-04T03:57:48;17.40;;;10.63;;
6205;SDS011;3136;48.788;9.772;2023-01-04T04:00:17;19.23;;;11.67;;
6205;SDS011;3136;48.788;9.772;2023-01-04T04:02:44;19.40;;;10.47;;
6205;SDS011;3136;48.788;9.772;2023-01-04T04:05:16;17.60;;;10.60;;
6205;SDS011;3136;48.788;9.772;2023-01-04T04:08:01;18.83;;;10.50;;
6205;SDS011;3136;48.788;9.772;2023-01-04T04:10:45;21.60;;;11.40;;
6205;SDS011;3136;48.788;9.772;2023-01-04T04:13:11;16.73;;;10.83;;
6205;SDS011;3136;48.788;9.772;2023-01-04T04:15:37;17.20;;;10.77;;
6205;SDS011;3136;48.788;9.772;2023-01-04T04:18:03;19.97;;;11.17;;
6205;SDS011;3136;48.788;9.772;2023-01-04T04:20:29;19.73;;;10.80;;
6205;SDS011;3136;48.788;9.772;2023-01-04T04:22:55;17.53;;;10.97;;
6205;SDS011;3136;48.788;9.772;2023-01-04T04:25:20;16.70;;;10.30;;
6205;SDS011;3136;48.788;9.772;2023-01-04T04:27:46;16.97;;;10.53;;
6205;SDS011;3136;48.788;9.772;2023-01-04T04:30:11;19.30;;;11.40;;
6205;SDS011;3136;48.788;9.772;2023-01-04T04:32:37;17.97;;;10.53;;
6205;SDS011;3136;48.788;9.772;2023-01-04T04:35:03;19.23;;;11.23;;
6205;SDS011;3136;48.788;9.772;2023-01-04T04:37:29;20.70;;;10.93;;
6205;SDS011;3136;48.788;9.772;2023-01-04T04:39:56;17.27;;;11.30;;
6205;SDS011;3136;48.788;9.772;2023-01-04T04:42:22;16.97;;;10.87;;
6205;SDS011;3136;48.788;9.772;2023-01-04T04:44:48;19.80;;;10.77;;
6205;SDS011;3136;48.788;9.772;2023-01-04T04:47:13;15.47;;;10.27;;
6205;SDS011;3136;48.788;9.772;2023-01-04T04:49:39;20.20;;;10.87;;
6205;SDS011;3136;48.788;9.772;2023-01-04T04:52:04;16.20;;;10.27;;
6205;SDS011;3136;48.788;9.772;2023-01-04T04:54:30;20.77;;;11.37;;
6205;SDS011;3136;48.788;9.772;2023-01-04T04:56:55;18.77;;;10.70;;
6205;SDS011;3136;48.788;9.772;2023-01-04T04:59:21;19.27;;;11.43;;
6205;SDS011;3136;48.788;9.772;2023-01-04T05:01:46;20.17;;;11.17;;
6205;SDS011;3136;48.788;9.772;2023-01-04T05:04:12;19.83;;;11.30;;
6205;SDS011;3136;48.788;9.772;2023-01-04T05:06:40;19.53;;;11.07;;
6205;SDS011;3136;48.788;9.772;2023-01-04T05:09:07;16.47;;;10.57;;
6205;SDS011;3136;48.788;9.772;2023-01-04T05:11:32;19.67;;;11.40;;
6205;SDS011;3136;48.788;9.772;2023-01-04T05:14:16;19.20;;;11.03;;
6205;SDS011;3136;48.788;9.772;2023-01-04T05:16:42;17.37;;;9.40;;
6205;SDS011;3136;48.788;9.772;2023-01-04T05:19:09;18.47;;;10.63;;
6205;SDS011;3136;48.788;9.772;2023-01-04T05:21:34;17.53;;;10.83;;
6205;SDS011;3136;48.788;9.772;2023-01-04T05:24:00;18.10;;;11.30;;
6205;SDS011;3136;48.788;9.772;2023-01-04T05:26:25;17.10;;;10.80;;
6205;SDS011;3136;48.788;9.772;2023-01-04T05:28:51;18.97;;;11.13;;
6205;SDS011;3136;48.788;9.772;2023-01-04T05:31:16;19.17;;;10.53;;
6205;SDS011;3136;48.788;9.772;2023-01-04T05:33:42;16.80;;;10.50;;
6205;SDS011;3136;48.788;9.772;2023-01-04T05:36:07;15.17;;;9.97;;
6205;SDS011;3136;48.788;9.772;2023-01-04T05:38:33;18.63;;;9.83;;
6205;SDS011;3136;48.788;9.772;2023-01-04T05:40:59;16.37;;;9.93;;
6205;SDS011;3136;48.788;9.772;2023-01-04T05:43:24;14.60;;;8.67;;
6205;SDS011;3136;48.788;9.772;2023-01-04T05:45:51;15.40;;;9.33;;
6205;SDS011;3136;48.788;9.772;2023-01-04T05:48:18;14.03;;;9.27;;
6205;SDS011;3136;48.788;9.772;2023-01-04T05:50:44;14.90;;;8.73;;
6205;SDS011;3136;48.788;9.772;2023-01-04T05:53:11;12.93;;;8.10;;
6205;SDS011;3136;48.788;9.772;2023-01-04T05:55:38;10.63;;;7.40;;
6205;SDS011;3136;48.788;9.772;2023-01-04T05:58:03;12.43;;;8.10;;
6205;SDS011;3136;48.788;9.772;2023-01-04T06:00:29;14.07;;;8.23;;
6205;SDS011;3136;48.788;9.772;2023-01-04T06:02:54;17.53;;;8.63;;
6205;SDS011;3136;48.788;9.772;2023-01-04T06:05:21;11.93;;;7.83;;
6205;SDS011;3136;48.788;9.772;2023-01-04T06:07:48;15.93;;;7.50;;
6205;SDS011;3136;48.788;9.772;2023-01-04T06:10:14;12.43;;;7.57;;
6205;SDS011;3136;48.788;9.772;2023-01-04T06:12:39;12.33;;;7.77;;
6205;SDS011;3136;48.788;9.772;2023-01-04T06:15:06;9.33;;;6.83;;
6205;SDS011;3136;48.788;9.772;2023-01-04T06:17:33;12.17;;;7.27;;
6205;SDS011;3136;48.788;9.772;2023-01-04T06:19:59;13.33;;;7.37;;
6205;SDS011;3136;48.788;9.772;2023-01-04T06:22:26;12.17;;;7.43;;
6205;SDS011;3136;48.788;9.772;2023-01-04T06:24:52;12.13;;;7.37;;
6205;SDS011;3136;48.788;9.772;2023-01-04T06:27:18;11.93;;;7.50;;
6205;SDS011;3136;48.788;9.772;2023-01-04T06:29:43;12.90;;;7.47;;
6205;SDS011;3136;48.788;9.772;2023-01-04T06:32:09;13.33;;;8.30;;
6205;SDS011;3136;48.788;9.772;2023-01-04T06:34:34;13.90;;;7.40;;
6205;SDS011;3136;48.788;9.772;2023-01-04T06:37:00;11.90;;;6.80;;
6205;SDS011;3136;48.788;9.772;2023-01-04T06:39:26;12.63;;;7.17;;
6205;SDS011;3136;48.788;9.772;2023-01-04T06:41:51;13.60;;;6.80;;
6205;SDS011;3136;48.788;9.772;2023-01-04T06:44:17;10.37;;;6.80;;
6205;SDS011;3136;48.788;9.772;2023-01-04T06:46:42;10.47;;;6.27;;
6205;SDS011;3136;48.788;9.772;2023-01-04T06:49:08;8.40;;;5.90;;
6205;SDS011;3136;48.788;9.772;2023-01-04T06:51:33;8.93;;;5.67;;
6205;SDS011;3136;48.788;9.772;2023-01-04T06:53:59;8.23;;;5.57;;
6205;SDS011;3136;48.788;9.772;2023-01-04T06:56:24;10.47;;;5.57;;
6205;SDS011;3136;48.788;9.772;2023-01-04T06:58:50;9.70;;;5.23;;
6205;SDS011;3136;48.788;9.772;2023-01-04T07:01:16;8.13;;;5.50;;
6205;SDS011;3136;48.788;9.772;2023-01-04T07:03:41;8.10;;;5.87;;
6205;SDS011;3136;48.788;9.772;2023-01-04T07:06:07;8.77;;;5.87;;
6205;SDS011;3136;48.788;9.772;2023-01-04T07:08:33;9.50;;;6.60;;
6205;SDS011;3136;48.788;9.772;2023-01-04T07:10:59;9.10;;;6.13;;
6205;SDS011;3136;48.788;9.772;2023-01-04T07:13:25;11.17;;;6.00;;
6205;SDS011;3136;48.788;9.772;2023-01-04T07:15:50;8.23;;;5.67;;
6205;SDS011;3136;48.788;9.772;2023-01-04T07:18:16;8.90;;;5.87;;
6205;SDS011;3136;48.788;9.772;2023-01-04T07:20:42;9.57;;;6.37;;
6205;SDS011;3136;48.788;9.772;2023-01-04T07:23:07;10.20;;;6.20;;
6205;SDS011;3136;48.788;9.772;2023-01-04T07:25:33;11.90;;;6.10;;
6205;SDS011;3136;48.788;9.772;2023-01-04T07:27:59;9.63;;;5.93;;
6205;SDS011;3136;48.788;9.772;2023-01-04T07:30:25;8.97;;;5.67;;
6205;SDS011;3136;48.788;9.772;2023-01-04T07:32:51;9.17;;;6.00;;
6205;SDS011;3136;48.788;9.772;2023-01-04T07:35:17;8.93;;;5.63;;
6205;SDS011;3136;48.788;9.772;2023-01-04T07:37:44;8.00;;;5.53;;
6205;SDS011;3136;48.788;9.772;2023-01-04T07:40:09;9.23;;;6.33;;
6205;SDS011;3136;48.788;9.772;2023-01-04T07:42:35;10.93;;;6.53;;
6205;SDS011;3136;48.788;9.772;2023-01-04T07:45:02;10.17;;;6.57;;
6205;SDS011;3136;48.788;9.772;2023-01-04T07:47:28;8.23;;;5.93;;
6205;SDS011;3136;48.788;9.772;2023-01-04T07:49:54;9.97;;;6.57;;
6205;SDS011;3136;48.788;9.772;2023-01-04T07:52:19;8.97;;;6.33;;
6205;SDS011;3136;48.788;9.772;2023-01-04T07:54:45;13.70;;;8.37;;
6205;SDS011;3136;48.788;9.772;2023-01-04T07:57:10;9.57;;;6.00;;
6205;SDS011;3136;48.788;9.772;2023-01-04T07:59:36;8.97;;;6.00;;
6205;SDS011;3136;48.788;9.772;2023-01-04T08:02:02;10.00;;;7.07;;
6205;SDS011;3136;48.788;9.772;2023-01-04T08:04:27;16.23;;;8.77;;
6205;SDS011;3136;48.788;9.772;2023-01-04T08:06:53;16.73;;;9.07;;
6205;SDS011;3136;48.788;9.772;2023-01-04T08:09:18;21.67;;;10.37;;
6205;SDS011;3136;48.788;9.772;2023-01-04T08:11:44;13.03;;;7.87;;
6205;SDS011;3136;48.788;9.772;2023-01-04T08:14:10;11.77;;;6.83;;
6205;SDS011;3136;48.788;9.772;2023-01-04T08:16:37;11.77;;;6.77;;
6205;SDS011;3136;48.788;9.772;2023-01-04T08:19:05;9.43;;;6.13;;
6205;SDS011;3136;48.788;9.772;2023-01-04T08:21:38;9.77;;;5.33;;
6205;SDS011;3136;48.788;9.772;2023-01-04T08:24:04;6.67;;;5.27;;
6205;SDS011;3136;48.788;9.772;2023-01-04T08:26:30;7.70;;;5.20;;
6205;SDS011;3136;48.788;9.772;2023-01-04T08:28:56;7.67;;;5.43;;
6205;SDS011;3136;48.788;9.772;2023-01-04T08:31:26;8.83;;;5.37;;
6205;SDS011;3136;48.788;9.772;2023-01-04T08:33:53;7.20;;;5.70;;
6205;SDS011;3136;48.788;9.772;2023-01-04T08:36:30;9.77;;;5.63;;
6205;SDS011;3136;48.788;9.772;2023-01-04T08:38:58;9.13;;;5.53;;
6205;SDS011;3136;48.788;9.772;2023-01-04T08:41:25;10.93;;;5.57;;
6205;SDS011;3136;48.788;9.772;2023-01-04T08:43:51;9.63;;;6.70;;
6205;SDS011;3136;48.788;9.772;2023-01-04T08:46:17;9.00;;;6.57;;
6205;SDS011;3136;48.788;9.772;2023-01-04T08:48:42;11.47;;;7.53;;
6205;SDS011;3136;48.788;9.772;2023-01-04T08:51:09;9.90;;;6.67;;
6205;SDS011;3136;48.788;9.772;2023-01-04T08:53:36;10.87;;;7.03;;
6205;SDS011;3136;48.788;9.772;2023-01-04T08:56:02;10.93;;;6.47;;
6205;SDS011;3136;48.788;9.772;2023-01-04T08:58:29;8.80;;;6.17;;
6205;SDS011;3136;48.788;9.772;2023-01-04T09:00:59;9.37;;;6.10;;
6205;SDS011;3136;48.788;9.772;2023-01-04T09:03:29;14.83;;;6.57;;
6205;SDS011;3136;48.788;9.772;2023-01-04T09:06:05;7.53;;;5.80;;
6205;SDS011;3136;48.788;9.772;2023-01-04T09:08:33;9.60;;;6.10;;
6205;SDS011;3136;48.788;9.772;2023-01-04T09:11:05;9.80;;;6.33;;
6205;SDS011;3136;48.788;9.772;2023-01-04T09:13:35;12.27;;;7.60;;
6205;SDS011;3136;48.788;9.772;2023-01-04T09:16:02;10.10;;;6.90;;
6205;SDS011;3136;48.788;9.772;2023-01-04T09:18:29;9.80;;;6.50;;
6205;SDS011;3136;48.788;9.772;2023-01-04T09:20:55;14.50;;;7.43;;
6205;SDS011;3136;48.788;9.772;2023-01-04T09:23:21;10.93;;;6.77;;
6205;SDS011;3136;48.788;9.772;2023-01-04T09:25:47;14.83;;;6.53;;
6205;SDS011;3136;48.788;9.772;2023-01-04T09:28:13;10.37;;;6.70;;
6205;SDS011;3136;48.788;9.772;2023-01-04T09:30:38;14.53;;;7.90;;
6205;SDS011;3136;48.788;9.772;2023-01-04T09:33:04;12.13;;;7.70;;
6205;SDS011;3136;48.788;9.772;2023-01-04T09:35:29;10.97;;;8.03;;
6205;SDS011;3136;48.788;9.772;2023-01-04T09:37:55;11.00;;;7.40;;
6205;SDS011;3136;48.788;9.772;2023-01-04T09:40:26;14.27;;;7.80;;
6205;SDS011;3136;48.788;9.772;2023-01-04T09:42:57;10.03;;;6.37;;
6205;SDS011;3136;48.788;9.772;2023-01-04T09:45:25;9.90;;;5.93;;
6205;SDS011;3136;48.788;9.772;2023-01-04T09:47:53;11.50;;;6.20;;
6205;SDS011;3136;48.788;9.772;2023-01-04T09:50:35;11.20;;;6.53;;
6205;SDS011;3136;48.788;9.772;2023-01-04T09:53:15;10.33;;;5.97;;
6205;SDS011;3136;48.788;9.772;2023-01-04T09:55:56;13.53;;;6.30;;
6205;SDS011;3136;48.788;9.772;2023-01-04T09:58:32;9.37;;;6.07;;
6205;SDS011;3136;48.788;9.772;2023-01-04T10:01:01;9.50;;;5.90;;
6205;SDS011;3136;48.788;9.772;2023-01-04T10:03:45;9.97;;;5.83;;
6205;SDS011;3136;48.788;9.772;2023-01-04T10:06:18;7.67;;;5.10;;
6205;SDS011;3136;48.788;9.772;2023-01-04T10:08:44;8.30;;;5.57;;
6205;SDS011;3136;48.788;9.772;2023-01-04T10:16:43;11.40;;;5.90;;
6205;SDS011;3136;48.788;9.772;2023-01-04T10:22:12;14.40;;;6.17;;
6205;SDS011;3136;48.788;9.772;2023-01-04T10:24:53;14.23;;;6.07;;
6205;SDS011;3136;48.788;9.772;2023-01-04T10:32:54;11.63;;;5.47;;
6205;SDS011;3136;48.788;9.772;2023-01-04T10:35:38;12.77;;;5.73;;
6205;SDS011;3136;48.788;9.772;2023-01-04T10:38:17;11.53;;;6.40;;
6205;SDS011;3136;48.788;9.772;2023-01-04T10:40:49;11.10;;;5.97;;
6205;SDS011;3136;48.788;9.772;2023-01-04T10:45:57;11.23;;;6.20;;
6205;SDS011;3136;48.788;9.772;2023-01-04T10:48:33;9.57;;;5.73;;
6205;SDS011;3136;48.788;9.772;2023-01-04T10:51:16;11.93;;;5.90;;
6205;SDS011;3136;48.788;9.772;2023-01-04T10:53:55;12.50;;;7.57;;
6205;SDS011;3136;48.788;9.772;2023-01-04T11:01:44;10.50;;;5.90;;
6205;SDS011;3136;48.788;9.772;2023-01-04T11:04:38;17.27;;;6.23;;
6205;SDS011;3136;48.788;9.772;2023-01-04T11:07:10;10.93;;;5.77;;
6205;SDS011;3136;48.788;9.772;2023-01-04T11:09:43;14.17;;;6.50;;
6205;SDS011;3136;48.788;9.772;2023-01-04T11:12:26;13.73;;;5.97;;
6205;SDS011;3136;48.788;9.772;2023-01-04T11:14:52;8.60;;;4.97;;
6205;SDS011;3136;48.788;9.772;2023-01-04T11:17:18;8.17;;;5.30;;
6205;SDS011;3136;48.788;9.772;2023-01-04T11:19:45;10.10;;;5.70;;
6205;SDS011;3136;48.788;9.772;2023-01-04T11:22:14;8.17;;;5.10;;
6205;SDS011;3136;48.788;9.772;2023-01-04T11:24:43;8.73;;;5.00;;
6205;SDS011;3136;48.788;9.772;2023-01-04T11:27:12;6.40;;;4.17;;
6205;SDS011;3136;48.788;9.772;2023-01-04T11:29:51;8.23;;;3.97;;
6205;SDS011;3136;48.788;9.772;2023-01-04T11:33:00;4.67;;;3.40;;
6205;SDS011;3136;48.788;9.772;2023-01-04T11:40:35;5.17;;;2.40;;
6205;SDS011;3136;48.788;9.772;2023-01-04T11:43:11;3.30;;;2.47;;
6205;SDS011;3136;48.788;9.772;2023-01-04T11:45:36;4.50;;;2.43;;
6205;SDS011;3136;48.788;9.772;2023-01-04T11:48:08;4.13;;;2.23;;
6205;SDS011;3136;48.788;9.772;2023-01-04T11:53:42;2.87;;;2.10;;
6205;SDS011;3136;48.788;9.772;2023-01-04T11:56:08;3.10;;;1.90;;
6205;SDS011;3136;48.788;9.772;2023-01-04T11:58:33;3.03;;;2.43;;
6205;SDS011;3136;48.788;9.772;2023-01-04T12:00:59;2.07;;;1.73;;
6205;SDS011;3136;48.788;9.772;2023-01-04T12:05:54;3.47;;;2.30;;
6205;SDS011;3136;48.788;9.772;2023-01-04T12:08:29;3.53;;;2.20;;
6205;SDS011;3136;48.788;9.772;2023-01-04T12:10:57;2.80;;;1.67;;
6205;SDS011;3136;48.788;9.772;2023-01-04T12:13:24;4.50;;;2.07;;
6205;SDS011;3136;48.788;9.772;2023-01-04T12:15:59;3.40;;;1.97;;
6205;SDS011;3136;48.788;9.772;2023-01-04T12:18:38;3.23;;;1.53;;
6205;SDS011;3136;48.788;9.772;2023-01-04T12:21:12;3.43;;;1.60;;
6205;SDS011;3136;48.788;9.772;2023-01-04T12:23:46;3.47;;;1.63;;
6205;SDS011;3136;48.788;9.772;2023-01-04T12:26:13;3.27;;;1.90;;
6205;SDS011;3136;48.788;9.772;2023-01-04T12:28:40;3.83;;;1.67;;
6205;SDS011;3136;48.788;9.772;2023-01-04T12:33:43;2.30;;;1.70;;
6205;SDS011;3136;48.788;9.772;2023-01-04T12:36:10;2.10;;;1.30;;
6205;SDS011;3136;48.788;9.772;2023-01-04T12:39:00;3.03;;;1.80;;
6205;SDS011;3136;48.788;9.772;2023-01-04T12:44:00;3.03;;;1.50;;
6205;SDS011;3136;48.788;9.772;2023-01-04T12:46:32;2.23;;;1.93;;
6205;SDS011;3136;48.788;9.772;2023-01-04T12:57:34;1.97;;;1.50;;
6205;SDS011;3136;48.788;9.772;2023-01-04T13:02:34;1.97;;;1.20;;
6205;SDS011;3136;48.788;9.772;2023-01-04T13:07:43;2.90;;;1.30;;
6205;SDS011;3136;48.788;9.772;2023-01-04T13:15:54;2.73;;;1.47;;
6205;SDS011;3136;48.788;9.772;2023-01-04T13:21:08;1.90;;;1.30;;
6205;SDS011;3136;48.788;9.772;2023-01-04T13:23:56;2.07;;;1.40;;
6205;SDS011;3136;48.788;9.772;2023-01-04T13:26:33;1.53;;;1.20;;
6205;SDS011;3136;48.788;9.772;2023-01-04T13:32:11;1.00;;;0.90;;
6205;SDS011;3136;48.788;9.772;2023-01-04T13:34:54;1.73;;;1.03;;
6205;SDS011;3136;48.788;9.772;2023-01-04T13:37:36;1.73;;;1.10;;
6205;SDS011;3136;48.788;9.772;2023-01-04T13:48:51;1.17;;;0.90;;
6205;SDS011;3136;48.788;9.772;2023-01-04T13:51:22;1.83;;;1.10;;
6205;SDS011;3136;48.788;9.772;2023-01-04T13:53:54;1.77;;;0.97;;
6205;SDS011;3136;48.788;9.772;2023-01-04T13:56:23;2.77;;;0.90;;
6205;SDS011;3136;48.788;9.772;2023-01-04T13:58:50;1.20;;;1.10;;
6205;SDS011;3136;48.788;9.772;2023-01-04T14:01:18;1.70;;;1.10;;
6205;SDS011;3136;48.788;9.772;2023-01-04T14:03:50;1.20;;;1.00;;
6205;SDS011;3136;48.788;9.772;2023-01-04T14:06:21;1.73;;;0.90;;
6205;SDS011;3136;48.788;9.772;2023-01-04T14:09:12;3.50;;;1.40;;
6205;SDS011;3136;48.788;9.772;2023-01-04T14:11:45;3.10;;;1.10;;
6205;SDS011;3136;48.788;9.772;2023-01-04T14:22:39;1.37;;;1.03;;
6205;SDS011;3136;48.788;9.772;2023-01-04T14:30:45;3.77;;;1.00;;
6205;SDS011;3136;48.788;9.772;2023-01-04T14:35:43;1.60;;;0.80;;
6205;SDS011;3136;48.788;9.772;2023-01-04T14:38:13;1.47;;;0.83;;
6205;SDS011;3136;48.788;9.772;2023-01-04T14:40:41;2.00;;;0.90;;
6205;SDS011;3136;48.788;9.772;2023-01-04T14:45:59;1.30;;;0.90;;
6205;SDS011;3136;48.788;9.772;2023-01-04T14:48:27;1.10;;;1.00;;
6205;SDS011;3136;48.788;9.772;2023-01-04T14:50:53;1.33;;;0.80;;
6205;SDS011;3136;48.788;9.772;2023-01-04T14:53:19;1.00;;;0.80;;
6205;SDS011;3136;48.788;9.772;2023-01-04T14:55:45;1.80;;;0.90;;
6205;SDS011;3136;48.788;9.772;2023-01-04T14:58:11;1.00;;;0.80;;
6205;SDS011;3136;48.788;9.772;2023-01-04T15:00:37;2.00;;;0.90;;
6205;SDS011;3136;48.788;9.772;2023-01-04T15:03:02;1.13;;;0.87;;
6205;SDS011;3136;48.788;9.772;2023-01-04T15:05:28;1.83;;;1.20;;
6205;SDS011;3136;48.788;9.772;2023-01-04T15:07:54;1.83;;;1.00;;
6205;SDS011;3136;48.788;9.772;2023-01-04T15:10:24;1.37;;;1.03;;
6205;SDS011;3136;48.788;9.772;2023-01-04T15:12:52;1.53;;;1.10;;
6205;SDS011;3136;48.788;9.772;2023-01-04T15:15:18;2.80;;;1.10;;
6205;SDS011;3136;48.788;9.772;2023-01-04T15:17:44;2.20;;;1.10;;
6205;SDS011;3136;48.788;9.772;2023-01-04T15:20:10;2.17;;;1.30;;
6205;SDS011;3136;48.788;9.772;2023-01-04T15:22:36;2.23;;;1.00;;
6205;SDS011;3136;48.788;9.772;2023-01-04T15:25:06;1.90;;;1.10;;
6205;SDS011;3136;48.788;9.772;2023-01-04T15:27:32;2.37;;;1.20;;
6205;SDS011;3136;48.788;9.772;2023-01-04T15:29:58;1.37;;;1.07;;
6205;SDS011;3136;48.788;9.772;2023-01-04T15:32:23;1.07;;;0.93;;
6205;SDS011;3136;48.788;9.772;2023-01-04T15:34:49;3.17;;;1.57;;
6205;SDS011;3136;48.788;9.772;2023-01-04T15:37:15;4.40;;;2.20;;
6205;SDS011;3136;48.788;9.772;2023-01-04T15:39:41;1.57;;;1.00;;
6205;SDS011;3136;48.788;9.772;2023-01-04T15:42:08;2.87;;;1.30;;
6205;SDS011;3136;48.788;9.772;2023-01-04T15:44:53;2.03;;;0.90;;
6205;SDS011;3136;48.788;9.772;2023-01-04T15:47:19;0.80;;;0.70;;
6205;SDS011;3136;48.788;9.772;2023-01-04T15:49:44;0.80;;;0.80;;
6205;SDS011;3136;48.788;9.772;2023-01-04T15:52:10;1.73;;;0.90;;
6205;SDS011;3136;48.788;9.772;2023-01-04T15:54:35;1.50;;;1.00;;
6205;SDS011;3136;48.788;9.772;2023-01-04T15:57:01;2.10;;;1.10;;
6205;SDS011;3136;48.788;9.772;2023-01-04T15:59:27;1.13;;;1.00;;
6205;SDS011;3136;48.788;9.772;2023-01-04T16:01:52;2.10;;;1.53;;
6205;SDS011;3136;48.788;9.772;2023-01-04T16:04:18;1.10;;;0.80;;
6205;SDS011;3136;48.788;9.772;2023-01-04T16:06:44;1.70;;;1.00;;
6205;SDS011;3136;48.788;9.772;2023-01-04T16:09:09;1.43;;;1.03;;
6205;SDS011;3136;48.788;9.772;2023-01-04T16:11:38;1.40;;;1.00;;
6205;SDS011;3136;48.788;9.772;2023-01-04T16:14:26;1.47;;;1.17;;
6205;SDS011;3136;48.788;9.772;2023-01-04T16:16:52;1.53;;;1.43;;
6205;SDS011;3136;48.788;9.772;2023-01-04T16:19:18;2.50;;;1.80;;
6205;SDS011;3136;48.788;9.772;2023-01-04T16:21:43;1.53;;;1.10;;
6205;SDS011;3136;48.788;9.772;2023-01-04T16:24:09;2.20;;;1.27;;
6205;SDS011;3136;48.788;9.772;2023-01-04T16:26:35;0.87;;;0.87;;
6205;SDS011;3136;48.788;9.772;2023-01-04T16:29:01;1.07;;;0.70;;
6205;SDS011;3136;48.788;9.772;2023-01-04T16:31:31;0.80;;;0.80;;
6205;SDS011;3136;48.788;9.772;2023-01-04T16:33:57;1.00;;;0.90;;
6205;SDS011;3136;48.788;9.772;2023-01-04T16:36:23;1.57;;;0.90;;
6205;SDS011;3136;48.788;9.772;2023-01-04T16:38:48;4.60;;;2.63;;
6205;SDS011;3136;48.788;9.772;2023-01-04T16:41:14;1.70;;;0.90;;
6205;SDS011;3136;48.788;9.772;2023-01-04T16:43:43;1.70;;;1.17;;
6205;SDS011;3136;48.788;9.772;2023-01-04T16:46:19;6.53;;;3.07;;
6205;SDS011;3136;48.788;9.772;2023-01-04T16:48:57;1.53;;;1.20;;
6205;SDS011;3136;48.788;9.772;2023-01-04T16:51:31;2.67;;;1.13;;
6205;SDS011;3136;48.788;9.772;2023-01-04T16:53:58;3.33;;;1.77;;
6205;SDS011;3136;48.788;9.772;2023-01-04T16:56:26;2.33;;;1.40;;
6205;SDS011;3136;48.788;9.772;2023-01-04T16:58:52;1.93;;;1.10;;
6205;SDS011;3136;48.788;9.772;2023-01-04T17:01:19;2.60;;;1.57;;
6205;SDS011;3136;48.788;9.772;2023-01-04T17:03:46;2.67;;;1.40;;
6205;SDS011;3136;48.788;9.772;2023-01-04T17:06:19;1.10;;;1.00;;
6205;SDS011;3136;48.788;9.772;2023-01-04T17:08:47;1.87;;;0.90;;
6205;SDS011;3136;48.788;9.772;2023-01-04T17:11:16;1.27;;;0.87;;
6205;SDS011;3136;48.788;9.772;2023-01-04T17:13:43;2.43;;;1.13;;
6205;SDS011;3136;48.788;9.772;2023-01-04T17:16:09;0.73;;;0.73;;